Eviapetrol II — SY6858 — position and weather

sailwx.info

Track history (hours):
 
Tides and Currents Weather Stations Pressure Air Temp Water Temp Dewpoint Dewpoint Depression Visibility Wind Speed Wind Dir Waves Ship Positions

Eviapetrol II

Last reported at 2018-Feb-20 07:40 UTC. Time now 2018-Feb-24 18:13 UTC.
Position N 37°10' E 025°48'.

Length 78 m; draft 4.8 m.

Type: Tanker. MMSI: 240493000.

Date/timePositionNaut miles runAvg speedWind from/ knotsBaromVisibWave heightAir tempDewpointWater temp
2018-Feb-20 07:40N 37°10' E 025°48'2 9.1
2018-Feb-20 07:30N 37°10' E 025°46'5 9.4
2018-Feb-20 07:00N 37°12' E 025°40'8 9.1
2018-Feb-20 06:05N 37°13' E 025°30'1 9.4
2018-Feb-20 06:00N 37°14' E 025°29'5 9.3
2018-Feb-20 05:30N 37°15' E 025°23'5 9.4
2018-Feb-20 05:00N 37°16' E 025°18'5 9.3
2018-Feb-20 04:30N 37°17' E 025°12'5 9.3
2018-Feb-20 03:59N 37°18' E 025°06'4 9.3
2018-Feb-20 03:30N 37°19' E 025°01'5 9.4
2018-Feb-20 03:00N 37°21' E 024°55'5 9.7
2018-Feb-20 02:30N 37°22' E 024°49'51 8.9
2018-Feb-19 20:45N 37°38' E 023°48'3 9.0
2018-Feb-19 20:27N 37°39' E 023°45'4 8.6
2018-Feb-19 20:00N 37°42' E 023°42'5 9.4
2018-Feb-19 19:30N 37°46' E 023°39'5 9.1
2018-Feb-19 19:00N 37°49' E 023°35'5 9.2
2018-Feb-19 18:31N 37°50' E 023°29'5 9.1
2018-Feb-19 18:00N 37°52' E 023°24'4 8.9
2018-Feb-19 17:30N 37°57' E 023°24'4 7.0
2018-Feb-19 17:00N 37°60' E 023°26'5 9.7
2018-Feb-19 16:30N 38°01' E 023°32'3 5.1
2018-Feb-19 15:55N 38°02' E 023°36'0 0.0
2018-Feb-19 15:25N 38°02' E 023°36'0 0.0
2018-Feb-19 14:07N 38°02' E 023°36'0 0.0
2018-Feb-19 12:55N 38°02' E 023°36'0 0.0
2018-Feb-19 12:25N 38°02' E 023°36'0 0.0
2018-Feb-19 11:31N 38°02' E 023°36'0 0.0
2018-Feb-19 11:01N 38°02' E 023°36'0 0.0
2018-Feb-19 10:55N 38°02' E 023°36'0 0.0
2018-Feb-19 10:25N 38°02' E 023°36'0 0.0
2018-Feb-19 09:55N 38°02' E 023°36'0 0.0
2018-Feb-19 09:25N 38°02' E 023°36'0 0.0
2018-Feb-19 08:55N 38°02' E 023°36'0 0.0
2018-Feb-19 08:25N 38°02' E 023°36'0 0.0
2018-Feb-19 07:55N 38°02' E 023°36'1 2.4
2018-Feb-19 07:30N 38°02' E 023°34'3 6.4
2018-Feb-19 07:00N 37°59' E 023°33'4 8.1
2018-Feb-19 06:30N 37°56' E 023°36'1 2.9
2018-Feb-19 06:00N 37°54' E 023°35'0 0.9
2018-Feb-19 05:30N 37°54' E 023°35'1 1.1
2018-Feb-19 05:00N 37°53' E 023°35'1 1.5
2018-Feb-19 04:30N 37°53' E 023°36'3 6.9
2018-Feb-19 04:00N 37°50' E 023°39'5 9.2
2018-Feb-19 03:30N 37°46' E 023°42'5 9.7
2018-Feb-19 03:00N 37°42' E 023°44'5 9.6
2018-Feb-19 02:30N 37°37' E 023°46'4 0.1
2018-Feb-17 02:57N 37°33' E 023°44'4 9.5
2018-Feb-17 02:30N 37°37' E 023°43'5 9.4
2018-Feb-17 02:00N 37°42' E 023°41'5 9.7
2018-Feb-17 01:30N 37°46' E 023°39'4 8.8
2018-Feb-17 01:00N 37°49' E 023°35'5 9.1
2018-Feb-17 00:30N 37°50' E 023°29'5 9.7
2018-Feb-17 00:00N 37°53' E 023°24'4 8.7
2018-Feb-16 23:31N 37°57' E 023°24'3 6.8
2018-Feb-16 23:00N 38°00' E 023°27'4 9.0
2018-Feb-16 22:30N 38°01' E 023°32'2 4.6
2018-Feb-16 22:00N 38°01' E 023°35'0 0.1
2018-Feb-16 21:15N 38°01' E 023°35'0 0.0
2018-Feb-16 20:54N 38°01' E 023°35'0 0.0
2018-Feb-16 20:30N 38°01' E 023°35'0 0.0
2018-Feb-16 20:00N 38°01' E 023°35'0 0.1
2018-Feb-16 19:30N 38°01' E 023°35'1 0.1
2018-Feb-16 15:10N 38°02' E 023°36'0 0.0
2018-Feb-16 14:46N 38°02' E 023°36'0 0.0
2018-Feb-16 14:22N 38°02' E 023°36'0 0.0
2018-Feb-16 13:46N 38°02' E 023°36'0 0.0
2018-Feb-16 13:28N 38°02' E 023°36'0 0.0
2018-Feb-16 12:58N 38°02' E 023°36'0 0.0
2018-Feb-16 10:34N 38°02' E 023°36'0 0.0
2018-Feb-16 10:22N 38°02' E 023°36'0 0.0
2018-Feb-16 09:58N 38°02' E 023°36'0 0.0
2018-Feb-16 09:13N 38°02' E 023°36'0 0.0
2018-Feb-16 08:55N 38°02' E 023°36'0 0.0
2018-Feb-16 07:47N 38°02' E 023°36'0 1.2
2018-Feb-16 07:30N 38°02' E 023°35'0 0.8
2018-Feb-16 07:00N 38°01' E 023°35'0 0.1
2018-Feb-16 06:30N 38°01' E 023°35'0 0.0
2018-Feb-16 06:00N 38°01' E 023°35'0 0.0
2018-Feb-16 05:30N 38°01' E 023°35'0 0.0
2018-Feb-16 05:00N 38°01' E 023°35'0 0.0
2018-Feb-16 04:30N 38°01' E 023°35'0 0.0
2018-Feb-16 04:00N 38°01' E 023°35'0 0.6
2018-Feb-16 03:30N 38°01' E 023°35'4 7.6
2018-Feb-16 03:00N 38°01' E 023°30'5 9.1
2018-Feb-16 02:30N 37°59' E 023°25'3 6.8
2018-Feb-16 02:00N 37°55' E 023°23'4 7.7
2018-Feb-16 01:30N 37°52' E 023°22'4 8.0
2018-Feb-16 01:00N 37°49' E 023°19'5 9.1
2018-Feb-16 00:29N 37°45' E 023°15'4 8.9
2018-Feb-16 00:00N 37°41' E 023°13'5 9.3
2018-Feb-15 23:30N 37°40' E 023°19'5 9.8
2018-Feb-15 23:00N 37°39' E 023°25'4 9.0
2018-Feb-15 22:30N 37°39' E 023°31'5 9.2
2018-Feb-15 22:00N 37°34' E 023°32'4 8.9
2018-Feb-15 21:30N 37°30' E 023°33'7 8.4
2018-Feb-15 20:41N 37°23' E 023°35'  
2018-Feb-13 11:33N 37°38' E 023°45'1 9.7
2018-Feb-13 11:30N 37°38' E 023°45'5 9.5
2018-Feb-13 11:00N 37°42' E 023°41'5 9.4
2018-Feb-13 10:30N 37°46' E 023°38'5 9.4
2018-Feb-13 10:00N 37°51' E 023°37'5 9.7
2018-Feb-13 09:30N 37°56' E 023°36'3 6.4
2018-Feb-13 09:00N 37°57' E 023°33'4 7.0
2018-Feb-13 08:30N 38°01' E 023°32'1 1.3
2018-Feb-13 07:55N 38°02' E 023°32'0 0.2
2018-Feb-13 07:17N 38°02' E 023°32'0 0.1
2018-Feb-13 06:59N 38°02' E 023°32'0 0.0
2018-Feb-13 06:29N 38°02' E 023°32'0 0.0
2018-Feb-13 05:56N 38°02' E 023°32'0 0.0
2018-Feb-13 05:26N 38°02' E 023°32'0 0.0
2018-Feb-13 04:59N 38°02' E 023°32'0 0.0
2018-Feb-13 04:29N 38°02' E 023°32'0 0.0
2018-Feb-13 03:59N 38°02' E 023°32'0 0.0
2018-Feb-13 03:14N 38°02' E 023°32'0 0.1
2018-Feb-13 02:59N 38°02' E 023°32'0 0.0
2018-Feb-13 02:30N 38°02' E 023°32'2 4.9
2018-Feb-13 02:00N 38°02' E 023°35'0 0.5
2018-Feb-13 01:14N 38°02' E 023°36'0 0.0
2018-Feb-13 00:56N 38°02' E 023°36'0 0.0
2018-Feb-13 00:26N 38°02' E 023°36'0 0.0
2018-Feb-12 23:59N 38°02' E 023°36'0 0.0
2018-Feb-12 23:14N 38°02' E 023°36'0 0.0
2018-Feb-12 22:56N 38°02' E 023°36'0 0.0
2018-Feb-12 22:14N 38°02' E 023°36'0 0.0
2018-Feb-12 21:53N 38°02' E 023°36'0 0.0
2018-Feb-12 20:26N 38°02' E 023°36'0 0.0
2018-Feb-12 19:32N 38°02' E 023°36'0 0.0
2018-Feb-12 19:29N 38°02' E 023°36'0 0.0
2018-Feb-12 17:53N 38°02' E 023°36'0 0.0
2018-Feb-12 17:23N 38°02' E 023°36'0 0.0
2018-Feb-12 15:31N 38°02' E 023°36'0 0.3
2018-Feb-12 15:30N 38°02' E 023°36'0 0.9
2018-Feb-12 15:01N 38°01' E 023°35'4 8.3
2018-Feb-12 14:30N 37°58' E 023°33'3 6.8
2018-Feb-12 14:00N 37°55' E 023°35'4 8.8
2018-Feb-12 13:30N 37°51' E 023°39'510.1
2018-Feb-12 13:00N 37°47' E 023°42'510.1
2018-Feb-12 12:30N 37°42' E 023°45'  
Track history (hours):
 
Tides and Currents Weather Stations Pressure Air Temp Water Temp Dewpoint Dewpoint Depression Visibility Wind Speed Wind Dir Waves Ship Positions

Eviapetrol II

Last reported at 2018-Feb-20 07:40 UTC. Time now 2018-Feb-24 18:13 UTC.
Position N 37°10' E 025°48'.

Length 78 m; draft 4.8 m.

Type: Tanker. MMSI: 240493000.

Date/timePositionNaut miles runAvg speedWind from/ knotsBaromVisibWave heightAir tempDewpointWater temp
2018-Feb-20 07:40N 37°10' E 025°48'2 9.1
2018-Feb-20 07:30N 37°10' E 025°46'5 9.4
2018-Feb-20 07:00N 37°12' E 025°40'8 9.1
2018-Feb-20 06:05N 37°13' E 025°30'1 9.4
2018-Feb-20 06:00N 37°14' E 025°29'5 9.3
2018-Feb-20 05:30N 37°15' E 025°23'5 9.4
2018-Feb-20 05:00N 37°16' E 025°18'5 9.3
2018-Feb-20 04:30N 37°17' E 025°12'5 9.3
2018-Feb-20 03:59N 37°18' E 025°06'4 9.3
2018-Feb-20 03:30N 37°19' E 025°01'5 9.4
2018-Feb-20 03:00N 37°21' E 024°55'5 9.7
2018-Feb-20 02:30N 37°22' E 024°49'51 8.9
2018-Feb-19 20:45N 37°38' E 023°48'3 9.0
2018-Feb-19 20:27N 37°39' E 023°45'4 8.6
2018-Feb-19 20:00N 37°42' E 023°42'5 9.4
2018-Feb-19 19:30N 37°46' E 023°39'5 9.1
2018-Feb-19 19:00N 37°49' E 023°35'5 9.2
2018-Feb-19 18:31N 37°50' E 023°29'5 9.1
2018-Feb-19 18:00N 37°52' E 023°24'4 8.9
2018-Feb-19 17:30N 37°57' E 023°24'4 7.0
2018-Feb-19 17:00N 37°60' E 023°26'5 9.7
2018-Feb-19 16:30N 38°01' E 023°32'3 5.1
2018-Feb-19 15:55N 38°02' E 023°36'0 0.0
2018-Feb-19 15:25N 38°02' E 023°36'0 0.0
2018-Feb-19 14:07N 38°02' E 023°36'0 0.0
2018-Feb-19 12:55N 38°02' E 023°36'0 0.0
2018-Feb-19 12:25N 38°02' E 023°36'0 0.0
2018-Feb-19 11:31N 38°02' E 023°36'0 0.0
2018-Feb-19 11:01N 38°02' E 023°36'0 0.0
2018-Feb-19 10:55N 38°02' E 023°36'0 0.0
2018-Feb-19 10:25N 38°02' E 023°36'0 0.0
2018-Feb-19 09:55N 38°02' E 023°36'0 0.0
2018-Feb-19 09:25N 38°02' E 023°36'0 0.0
2018-Feb-19 08:55N 38°02' E 023°36'0 0.0
2018-Feb-19 08:25N 38°02' E 023°36'0 0.0
2018-Feb-19 07:55N 38°02' E 023°36'1 2.4
2018-Feb-19 07:30N 38°02' E 023°34'3 6.4
2018-Feb-19 07:00N 37°59' E 023°33'4 8.1
2018-Feb-19 06:30N 37°56' E 023°36'1 2.9
2018-Feb-19 06:00N 37°54' E 023°35'0 0.9
2018-Feb-19 05:30N 37°54' E 023°35'1 1.1
2018-Feb-19 05:00N 37°53' E 023°35'1 1.5
2018-Feb-19 04:30N 37°53' E 023°36'3 6.9
2018-Feb-19 04:00N 37°50' E 023°39'5 9.2
2018-Feb-19 03:30N 37°46' E 023°42'5 9.7
2018-Feb-19 03:00N 37°42' E 023°44'5 9.6
2018-Feb-19 02:30N 37°37' E 023°46'4 0.1
2018-Feb-17 02:57N 37°33' E 023°44'4 9.5
2018-Feb-17 02:30N 37°37' E 023°43'5 9.4
2018-Feb-17 02:00N 37°42' E 023°41'5 9.7
2018-Feb-17 01:30N 37°46' E 023°39'4 8.8
2018-Feb-17 01:00N 37°49' E 023°35'5 9.1
2018-Feb-17 00:30N 37°50' E 023°29'5 9.7
2018-Feb-17 00:00N 37°53' E 023°24'4 8.7
2018-Feb-16 23:31N 37°57' E 023°24'3 6.8
2018-Feb-16 23:00N 38°00' E 023°27'4 9.0
2018-Feb-16 22:30N 38°01' E 023°32'2 4.6
2018-Feb-16 22:00N 38°01' E 023°35'0 0.1
2018-Feb-16 21:15N 38°01' E 023°35'0 0.0
2018-Feb-16 20:54N 38°01' E 023°35'0 0.0
2018-Feb-16 20:30N 38°01' E 023°35'0 0.0
2018-Feb-16 20:00N 38°01' E 023°35'0 0.1
2018-Feb-16 19:30N 38°01' E 023°35'1 0.1
2018-Feb-16 15:10N 38°02' E 023°36'0 0.0
2018-Feb-16 14:46N 38°02' E 023°36'0 0.0
2018-Feb-16 14:22N 38°02' E 023°36'0 0.0
2018-Feb-16 13:46N 38°02' E 023°36'0 0.0
2018-Feb-16 13:28N 38°02' E 023°36'0 0.0
2018-Feb-16 12:58N 38°02' E 023°36'0 0.0
2018-Feb-16 10:34N 38°02' E 023°36'0 0.0
2018-Feb-16 10:22N 38°02' E 023°36'0 0.0
2018-Feb-16 09:58N 38°02' E 023°36'0 0.0
2018-Feb-16 09:13N 38°02' E 023°36'0 0.0
2018-Feb-16 08:55N 38°02' E 023°36'0 0.0
2018-Feb-16 07:47N 38°02' E 023°36'0 1.2
2018-Feb-16 07:30N 38°02' E 023°35'0 0.8
2018-Feb-16 07:00N 38°01' E 023°35'0 0.1
2018-Feb-16 06:30N 38°01' E 023°35'0 0.0
2018-Feb-16 06:00N 38°01' E 023°35'0 0.0
2018-Feb-16 05:30N 38°01' E 023°35'0 0.0
2018-Feb-16 05:00N 38°01' E 023°35'0 0.0
2018-Feb-16 04:30N 38°01' E 023°35'0 0.0
2018-Feb-16 04:00N 38°01' E 023°35'0 0.6
2018-Feb-16 03:30N 38°01' E 023°35'4 7.6
2018-Feb-16 03:00N 38°01' E 023°30'5 9.1
2018-Feb-16 02:30N 37°59' E 023°25'3 6.8
2018-Feb-16 02:00N 37°55' E 023°23'4 7.7
2018-Feb-16 01:30N 37°52' E 023°22'4 8.0
2018-Feb-16 01:00N 37°49' E 023°19'5 9.1
2018-Feb-16 00:29N 37°45' E 023°15'4 8.9
2018-Feb-16 00:00N 37°41' E 023°13'5 9.3
2018-Feb-15 23:30N 37°40' E 023°19'5 9.8
2018-Feb-15 23:00N 37°39' E 023°25'4 9.0
2018-Feb-15 22:30N 37°39' E 023°31'5 9.2
2018-Feb-15 22:00N 37°34' E 023°32'4 8.9
2018-Feb-15 21:30N 37°30' E 023°33'7 8.4
2018-Feb-15 20:41N 37°23' E 023°35'  
2018-Feb-13 11:33N 37°38' E 023°45'1 9.7
2018-Feb-13 11:30N 37°38' E 023°45'5 9.5
2018-Feb-13 11:00N 37°42' E 023°41'5 9.4
2018-Feb-13 10:30N 37°46' E 023°38'5 9.4
2018-Feb-13 10:00N 37°51' E 023°37'5 9.7
2018-Feb-13 09:30N 37°56' E 023°36'3 6.4
2018-Feb-13 09:00N 37°57' E 023°33'4 7.0
2018-Feb-13 08:30N 38°01' E 023°32'1 1.3
2018-Feb-13 07:55N 38°02' E 023°32'0 0.2
2018-Feb-13 07:17N 38°02' E 023°32'0 0.1
2018-Feb-13 06:59N 38°02' E 023°32'0 0.0
2018-Feb-13 06:29N 38°02' E 023°32'0 0.0
2018-Feb-13 05:56N 38°02' E 023°32'0 0.0
2018-Feb-13 05:26N 38°02' E 023°32'0 0.0
2018-Feb-13 04:59N 38°02' E 023°32'0 0.0
2018-Feb-13 04:29N 38°02' E 023°32'0 0.0
2018-Feb-13 03:59N 38°02' E 023°32'0 0.0
2018-Feb-13 03:14N 38°02' E 023°32'0 0.1
2018-Feb-13 02:59N 38°02' E 023°32'0 0.0
2018-Feb-13 02:30N 38°02' E 023°32'2 4.9
2018-Feb-13 02:00N 38°02' E 023°35'0 0.5
2018-Feb-13 01:14N 38°02' E 023°36'0 0.0
2018-Feb-13 00:56N 38°02' E 023°36'0 0.0
2018-Feb-13 00:26N 38°02' E 023°36'0 0.0
2018-Feb-12 23:59N 38°02' E 023°36'0 0.0
2018-Feb-12 23:14N 38°02' E 023°36'0 0.0
2018-Feb-12 22:56N 38°02' E 023°36'0 0.0
2018-Feb-12 22:14N 38°02' E 023°36'0 0.0
2018-Feb-12 21:53N 38°02' E 023°36'0 0.0
2018-Feb-12 20:26N 38°02' E 023°36'0 0.0
2018-Feb-12 19:32N 38°02' E 023°36'0 0.0
2018-Feb-12 19:29N 38°02' E 023°36'0 0.0
2018-Feb-12 17:53N 38°02' E 023°36'0 0.0
2018-Feb-12 17:23N 38°02' E 023°36'0 0.0
2018-Feb-12 15:31N 38°02' E 023°36'0 0.3
2018-Feb-12 15:30N 38°02' E 023°36'0 0.9
2018-Feb-12 15:01N 38°01' E 023°35'4 8.3
2018-Feb-12 14:30N 37°58' E 023°33'3 6.8
2018-Feb-12 14:00N 37°55' E 023°35'4 8.8
2018-Feb-12 13:30N 37°51' E 023°39'510.1
2018-Feb-12 13:00N 37°47' E 023°42'510.1
2018-Feb-12 12:30N 37°42' E 023°45'  

Dump ship's entire track history